createdAt,value
2022-07-29T07:52:55.926Z,3.85
2022-07-29T07:55:27.086Z,3.50
2022-07-29T07:57:55.915Z,4.20
2022-07-29T08:00:24.280Z,4.03
2022-07-29T08:02:52.259Z,4.00
2022-07-29T08:05:19.881Z,3.90
2022-07-29T08:07:48.274Z,3.60
2022-07-29T08:10:38.047Z,3.90
2022-07-29T08:13:09.692Z,3.40
2022-07-29T08:15:37.257Z,3.25
2022-07-29T08:18:08.715Z,2.75
2022-07-29T08:20:39.202Z,2.90
2022-07-29T08:23:09.616Z,2.80
2022-07-29T08:25:40.276Z,2.20
2022-07-29T08:28:08.119Z,2.53
2022-07-29T08:30:36.102Z,2.30
2022-07-29T08:33:04.104Z,2.75
2022-07-29T08:35:35.183Z,2.40
2022-07-29T08:38:04.479Z,2.50
2022-07-29T08:40:32.845Z,3.10
2022-07-29T08:43:06.426Z,2.80
2022-07-29T08:45:47.974Z,2.70
2022-07-29T08:48:18.662Z,1.85
2022-07-29T08:50:47.368Z,1.90
2022-07-29T08:53:19.662Z,1.92
2022-07-29T08:55:49.598Z,1.63
2022-07-29T08:58:18.116Z,1.73
2022-07-29T09:00:53.889Z,1.50
2022-07-29T09:03:30.646Z,1.60
2022-07-29T09:05:59.917Z,1.88
2022-07-29T09:08:27.903Z,1.90
2022-07-29T09:10:59.359Z,1.60
2022-07-29T09:13:27.467Z,1.90
2022-07-29T09:15:55.071Z,1.80
2022-07-29T09:18:42.082Z,1.98
2022-07-29T09:21:30.853Z,2.20
2022-07-29T09:24:04.302Z,2.15
2022-07-29T09:26:33.775Z,2.40
2022-07-29T09:29:08.359Z,1.73
2022-07-29T09:31:38.922Z,1.90
2022-07-29T09:34:07.758Z,1.70
2022-07-29T09:36:41.331Z,1.67
2022-07-29T09:39:09.343Z,2.20
2022-07-29T09:41:53.896Z,2.00
2022-07-29T09:44:22.739Z,2.25
2022-07-29T09:47:07.411Z,2.08
2022-07-29T09:49:58.807Z,1.88
2022-07-29T09:52:30.952Z,1.60
2022-07-29T09:55:09.462Z,2.50
2022-07-29T09:57:37.690Z,1.90
2022-07-29T10:02:46.995Z,2.00
2022-07-29T10:05:23.892Z,1.77
2022-07-29T10:07:55.237Z,2.20
2022-07-29T10:10:31.829Z,2.28
2022-07-29T10:13:06.347Z,2.10
2022-07-29T10:15:41.688Z,2.13
2022-07-29T10:18:10.337Z,2.42
2022-07-29T10:20:38.815Z,2.22
2022-07-29T10:23:06.446Z,2.20
2022-07-29T10:25:34.298Z,2.00
2022-07-29T10:28:01.859Z,2.30
2022-07-29T10:30:29.582Z,2.00
2022-07-29T10:33:30.942Z,2.10
2022-07-29T10:36:25.949Z,1.73
2022-07-29T10:39:41.559Z,2.72
2022-07-29T10:45:18.413Z,2.38
2022-07-29T10:47:46.370Z,2.13
2022-07-29T10:52:58.843Z,2.17
2022-07-29T10:55:39.366Z,1.77
2022-07-29T10:58:19.490Z,2.30
2022-07-29T11:00:49.685Z,2.42
2022-07-29T11:07:07.873Z,2.00
2022-07-29T11:09:38.431Z,1.83
2022-07-29T11:12:37.799Z,2.00
2022-07-29T11:15:21.737Z,1.60
2022-07-29T11:17:55.416Z,1.40
2022-07-29T11:23:26.223Z,1.77
2022-07-29T11:26:23.253Z,1.92
2022-07-29T11:29:05.719Z,1.52
2022-07-29T11:31:42.752Z,1.45
2022-07-29T11:34:33.392Z,1.80
2022-07-29T11:37:14.330Z,1.85
2022-07-29T11:39:48.575Z,1.80
2022-07-29T11:42:32.369Z,1.50
2022-07-29T11:45:04.334Z,1.52
2022-07-29T11:47:54.035Z,1.58
2022-07-29T11:50:31.338Z,1.63
2022-07-29T11:53:22.731Z,1.80
2022-07-29T11:55:56.428Z,1.70
2022-07-29T11:58:27.119Z,1.70
2022-07-29T12:00:56.290Z,1.50
2022-07-29T12:03:34.991Z,1.40
2022-07-29T12:06:12.331Z,2.20
2022-07-29T12:08:44.961Z,1.63
2022-07-29T12:11:21.789Z,1.50
2022-07-29T12:13:51.949Z,1.33
2022-07-29T12:16:25.403Z,2.00
2022-07-29T12:19:02.091Z,1.70
2022-07-29T12:21:50.957Z,1.55
2022-07-29T12:24:26.757Z,1.90
2022-07-29T12:27:00.433Z,1.60
2022-07-29T12:29:35.637Z,1.70
2022-07-29T12:32:14.221Z,1.88
2022-07-29T12:34:42.889Z,1.77
2022-07-29T12:37:11.154Z,1.60
2022-07-29T12:39:39.251Z,2.05
2022-07-29T12:42:13.965Z,1.98
2022-07-29T12:44:50.510Z,1.70
2022-07-29T12:47:19.631Z,1.67
2022-07-29T12:49:48.441Z,1.80
2022-07-29T12:52:32.170Z,1.85
2022-07-29T12:54:59.889Z,1.92
2022-07-29T12:57:28.204Z,1.80
2022-07-29T13:00:04.273Z,1.33
2022-07-29T13:02:32.127Z,1.48
2022-07-29T13:07:54.689Z,1.70
2022-07-29T13:10:23.964Z,1.90
2022-07-29T13:13:13.822Z,1.50
2022-07-29T13:15:48.577Z,2.20
2022-07-29T13:18:37.063Z,2.00
2022-07-29T13:21:16.020Z,1.75
2022-07-29T13:23:44.036Z,1.35
2022-07-29T13:26:17.251Z,1.83
2022-07-29T13:28:44.771Z,1.70
2022-07-29T13:31:12.456Z,1.40
2022-07-29T13:33:40.095Z,1.60
2022-07-29T13:36:08.059Z,1.73
2022-07-29T13:41:03.262Z,1.48
2022-07-29T13:43:31.047Z,1.35
2022-07-29T13:45:58.685Z,1.50
2022-07-29T13:48:26.196Z,1.48
2022-07-29T13:50:53.741Z,1.67
2022-07-29T13:53:27.044Z,1.67
2022-07-29T13:55:55.888Z,1.65
2022-07-29T13:58:23.675Z,1.40
2022-07-29T14:03:19.472Z,1.80
2022-07-29T14:05:47.650Z,1.67
2022-07-29T14:08:16.066Z,1.50
2022-07-29T14:10:43.630Z,1.85
2022-07-29T14:13:24.738Z,1.40
2022-07-29T14:15:53.568Z,1.65
2022-07-29T14:18:21.389Z,1.48
2022-07-29T14:20:49.161Z,1.67
2022-07-29T14:23:16.852Z,1.60
2022-07-29T14:25:47.670Z,1.60
2022-07-29T14:28:17.206Z,1.70
2022-07-29T14:30:44.751Z,1.58
2022-07-29T14:33:13.077Z,1.63
2022-07-29T14:35:40.661Z,2.05
2022-07-29T14:38:08.360Z,1.63
2022-07-29T14:40:35.908Z,1.35
2022-07-29T14:43:03.941Z,1.40
2022-07-29T14:45:32.490Z,1.60
2022-07-29T14:48:00.873Z,1.50
2022-07-29T14:50:31.507Z,1.60
2022-07-29T14:53:00.885Z,1.50
2022-07-29T14:55:28.680Z,1.40
2022-07-29T14:58:03.256Z,1.40
2022-07-29T15:03:03.050Z,1.45
2022-07-29T15:05:32.154Z,1.58
2022-07-29T15:08:00.537Z,1.52
2022-07-29T15:10:28.382Z,1.63
2022-07-29T15:12:57.260Z,1.20
2022-07-29T15:17:52.255Z,1.25
2022-07-29T15:22:47.207Z,1.52
2022-07-29T15:30:31.542Z,1.77
2022-07-29T15:33:04.613Z,1.50
2022-07-29T15:35:32.887Z,1.45
2022-07-29T15:38:00.586Z,1.42
2022-07-29T15:45:23.256Z,1.40
2022-07-29T15:50:20.025Z,1.77
2022-07-29T15:52:47.592Z,2.15
2022-07-29T15:55:16.363Z,1.77
2022-07-29T15:57:44.080Z,2.00
2022-07-29T16:00:12.114Z,2.13
2022-07-29T16:02:40.022Z,2.60
2022-07-29T16:05:09.435Z,2.97
2022-07-29T16:07:37.861Z,3.00
2022-07-29T16:10:07.827Z,1.65
2022-07-29T16:12:35.549Z,1.67
2022-07-29T16:15:08.955Z,1.90
2022-07-29T16:17:37.880Z,1.77
2022-07-29T16:20:06.494Z,1.45
2022-07-29T16:22:34.446Z,1.60
2022-07-29T16:25:02.195Z,1.60
2022-07-29T16:30:09.666Z,1.80
2022-07-29T16:32:37.725Z,1.60
2022-07-29T16:35:06.736Z,1.80
2022-07-29T16:37:35.464Z,2.50
2022-07-29T16:40:07.973Z,1.77
2022-07-29T16:42:47.892Z,1.75
2022-07-29T16:45:21.182Z,1.52
2022-07-29T16:47:49.297Z,1.52
2022-07-29T16:50:17.871Z,1.50
2022-07-29T16:55:12.943Z,1.67
2022-07-29T16:57:42.063Z,1.88
2022-07-29T17:00:10.341Z,2.65
2022-07-29T17:02:38.749Z,1.90
2022-07-29T17:05:07.705Z,2.00
2022-07-29T17:07:35.454Z,1.65
2022-07-29T17:10:05.158Z,1.60
2022-07-29T17:12:32.936Z,1.67
2022-07-29T17:15:00.646Z,2.13
2022-07-29T17:17:38.577Z,1.73
2022-07-29T17:20:09.314Z,1.92
2022-07-29T17:22:37.635Z,1.67
2022-07-29T17:25:06.827Z,1.80
2022-07-29T17:27:34.974Z,1.92
2022-07-29T17:30:04.296Z,1.90
2022-07-29T17:32:36.467Z,1.67
2022-07-29T17:35:25.058Z,1.70
2022-07-29T17:37:52.776Z,1.85
2022-07-29T17:40:20.590Z,1.77
2022-07-29T17:45:15.998Z,1.80
2022-07-29T17:50:14.468Z,1.60
2022-07-29T17:52:42.040Z,1.80
2022-07-29T17:55:10.297Z,1.45
2022-07-29T17:57:37.976Z,1.83
2022-07-29T18:00:08.335Z,1.85
2022-07-29T18:02:37.687Z,1.73
2022-07-29T18:05:05.960Z,1.80
2022-07-29T18:12:28.573Z,1.98
2022-07-29T18:14:56.091Z,1.92
2022-07-29T18:17:23.617Z,1.80
2022-07-29T18:20:11.320Z,2.00
2022-07-29T18:22:38.909Z,2.65
2022-07-29T18:25:06.951Z,2.20
2022-07-29T18:30:04.558Z,4.18
2022-07-29T18:32:32.830Z,3.67
2022-07-29T18:35:02.733Z,2.53
2022-07-29T18:38:02.226Z,2.13
2022-07-29T18:40:20.852Z,2.58
2022-07-29T18:42:48.651Z,2.20
2022-07-29T18:45:19.154Z,2.50
2022-07-29T18:47:49.290Z,2.05
2022-07-29T18:50:17.371Z,2.40
2022-07-29T18:52:46.508Z,1.80
2022-07-29T18:55:14.121Z,1.85
2022-07-29T18:57:56.192Z,1.80
2022-07-29T19:00:26.365Z,1.95
2022-07-29T19:02:54.291Z,1.83
2022-07-29T19:07:50.840Z,2.38
2022-07-29T19:10:18.601Z,2.08
2022-07-29T19:12:46.485Z,2.00
2022-07-29T19:15:20.293Z,2.50
2022-07-29T19:17:48.918Z,1.90
2022-07-29T19:20:17.022Z,2.17
2022-07-29T19:22:45.188Z,2.15
2022-07-29T19:25:12.866Z,2.10
2022-07-29T19:27:41.378Z,1.80
2022-07-29T19:30:09.617Z,2.10
2022-07-29T19:32:38.066Z,2.00
2022-07-29T19:35:24.584Z,1.92
2022-07-29T19:37:53.423Z,2.47
2022-07-29T19:40:21.730Z,1.92
2022-07-29T19:42:51.556Z,2.20
2022-07-29T19:45:20.593Z,2.28
2022-07-29T19:47:49.137Z,2.05
2022-07-29T19:50:17.649Z,2.40
2022-07-29T19:52:47.080Z,2.00
2022-07-29T19:55:15.341Z,2.00
2022-07-29T19:57:43.266Z,2.05
2022-07-29T20:00:12.239Z,2.00
2022-07-29T20:02:41.610Z,2.20
2022-07-29T20:05:10.175Z,2.08
2022-07-29T20:07:38.628Z,2.25
2022-07-29T20:10:07.661Z,2.17
2022-07-29T20:12:35.856Z,1.90
2022-07-29T20:15:04.792Z,2.00
2022-07-29T20:17:32.667Z,2.30
2022-07-29T20:20:08.728Z,1.90
2022-07-29T20:22:37.624Z,2.00
2022-07-29T20:25:06.808Z,2.50
2022-07-29T20:27:36.879Z,2.17
2022-07-29T20:30:05.768Z,2.25
2022-07-29T20:32:34.267Z,2.00
2022-07-29T20:35:01.801Z,2.10
2022-07-29T20:37:29.368Z,2.53
2022-07-29T20:39:56.939Z,2.60
2022-07-29T20:42:24.691Z,2.00
2022-07-29T20:44:53.869Z,2.60
2022-07-29T20:47:22.393Z,2.50
2022-07-29T20:49:50.039Z,2.70
2022-07-29T20:52:21.576Z,2.50
2022-07-29T20:54:49.523Z,2.80
2022-07-29T20:57:17.356Z,2.50
2022-07-29T21:00:06.689Z,2.42
2022-07-29T21:02:34.512Z,2.70
2022-07-29T21:05:02.223Z,2.20
2022-07-29T21:07:29.808Z,2.60
2022-07-29T21:09:57.559Z,2.22
2022-07-29T21:12:25.182Z,2.28
2022-07-29T21:14:52.840Z,2.10
2022-07-29T21:17:22.486Z,2.40
2022-07-29T21:19:52.639Z,2.45
2022-07-29T21:22:22.284Z,2.28
2022-07-29T21:24:50.202Z,2.67
2022-07-29T21:27:38.295Z,2.30
2022-07-29T21:30:07.996Z,2.22
2022-07-29T21:32:35.605Z,2.65
2022-07-29T21:35:14.620Z,2.90
2022-07-29T21:37:50.168Z,2.80
2022-07-29T21:40:17.715Z,2.55
2022-07-29T21:42:45.540Z,2.30
2022-07-29T21:45:16.095Z,2.25
2022-07-29T21:47:43.637Z,2.75
2022-07-29T21:50:11.216Z,2.80
2022-07-29T21:52:39.015Z,2.40
2022-07-29T21:55:07.986Z,2.53
2022-07-29T21:57:38.515Z,2.63
2022-07-29T22:00:08.306Z,2.38
2022-07-29T22:02:40.120Z,2.33
2022-07-29T22:05:07.995Z,2.38
2022-07-29T22:07:54.507Z,2.60
2022-07-29T22:10:23.959Z,2.40
2022-07-29T22:12:53.388Z,2.20
2022-07-29T22:15:21.535Z,2.10
2022-07-29T22:17:49.354Z,2.53
2022-07-29T22:20:17.170Z,2.00
2022-07-29T22:22:44.839Z,2.17
2022-07-29T22:25:12.463Z,2.10
2022-07-29T22:27:40.271Z,2.25
2022-07-29T22:30:08.653Z,2.00
2022-07-29T22:32:37.257Z,2.13
2022-07-29T22:35:05.557Z,2.17
2022-07-29T22:40:00.790Z,1.90
2022-07-29T22:42:28.312Z,2.03
2022-07-29T22:44:55.819Z,1.88
2022-07-29T22:47:38.834Z,2.15
2022-07-29T22:50:11.120Z,2.10
2022-07-29T22:52:38.762Z,2.05
2022-07-29T22:55:06.728Z,2.10
2022-07-29T22:57:34.230Z,2.00
2022-07-29T23:00:02.347Z,2.20
2022-07-29T23:02:30.024Z,2.30
2022-07-29T23:04:57.794Z,2.15
2022-07-29T23:07:25.417Z,2.33
2022-07-29T23:09:53.056Z,5.30
2022-07-29T23:12:20.679Z,2.40
2022-07-29T23:14:48.174Z,2.17
2022-07-29T23:17:15.735Z,2.05
2022-07-29T23:19:43.283Z,2.13
2022-07-29T23:22:12.301Z,2.30
2022-07-29T23:24:39.817Z,2.47
2022-07-29T23:27:08.483Z,2.20
2022-07-29T23:29:36.935Z,2.33
2022-07-29T23:32:04.927Z,2.30
2022-07-29T23:34:32.494Z,2.05
2022-07-29T23:37:00.291Z,1.90
2022-07-29T23:41:55.405Z,1.90
2022-07-29T23:44:22.955Z,2.00
2022-07-29T23:46:50.619Z,2.20
2022-07-29T23:49:18.222Z,1.90
2022-07-29T23:51:45.834Z,2.40
2022-07-29T23:54:13.400Z,2.35
2022-07-29T23:56:40.934Z,2.25
2022-07-29T23:59:08.479Z,2.50
